Time;durP1;ratioP1;P1;durP2;ratioP2;P2;SDS_P1;SDS_P2;PMS_P1;PMS_P2;Temp;Humidity;BMP_temperature;BMP_pressure;BME280_temperature;BME280_humidity;BME280_pressure;Samples;Min_cycle;Max_cycle;Signal;HPM_P1;HPM_P2
2022/07/15 00:00:11;;;;;;;7.15;6.45;;;;;;;14.34;100.00;100815.13;1741124;82;21029;-88
2022/07/15 00:02:39;;;;;;;7.75;6.35;;;;;;;14.36;100.00;100821.89;1741103;82;21105;-88
2022/07/15 00:05:08;;;;;;;7.50;6.58;;;;;;;14.39;100.00;100819.97;1740907;82;21076;-87
2022/07/15 00:07:37;;;;;;;7.25;6.58;;;;;;;14.40;100.00;100821.13;1741170;82;21157;-90
2022/07/15 00:10:15;;;;;;;7.47;5.97;;;;;;;14.41;100.00;100821.98;1740815;80;21045;-88
2022/07/15 00:12:46;;;;;;;7.70;6.03;;;;;;;14.41;100.00;100816.73;1740546;82;21654;-87
2022/07/15 00:15:14;;;;;;;7.28;6.00;;;;;;;14.40;100.00;100822.44;1741003;81;21006;-87
2022/07/15 00:17:42;;;;;;;7.42;6.10;;;;;;;14.40;100.00;100817.20;1740868;82;21018;-88
2022/07/15 00:20:11;;;;;;;8.38;6.20;;;;;;;14.41;100.00;100814.13;1740615;82;21200;-88
2022/07/15 00:22:39;;;;;;;6.95;5.78;;;;;;;14.43;100.00;100817.41;1741699;82;21061;-88
2022/07/15 00:25:07;;;;;;;6.58;5.80;;;;;;;14.45;100.00;100816.33;1741332;82;21089;-88
2022/07/15 00:27:34;;;;;;;6.53;5.67;;;;;;;14.47;100.00;100818.81;1741800;82;21050;-88
2022/07/15 00:30:05;;;;;;;6.95;5.58;;;;;;;14.48;100.00;100817.36;1741066;82;21056;-88
2022/07/15 00:32:33;;;;;;;6.75;5.97;;;;;;;14.49;100.00;100815.58;1740917;82;21152;-88
2022/07/15 00:35:00;;;;;;;6.80;6.00;;;;;;;14.50;100.00;100817.24;1740904;82;21042;-89
2022/07/15 00:37:27;;;;;;;6.17;5.55;;;;;;;14.50;100.00;100811.50;1741008;82;21065;-88
2022/07/15 00:39:54;;;;;;;7.50;5.75;;;;;;;14.50;100.00;100810.20;1741167;82;21088;-89
2022/07/15 00:45:12;;;;;;;6.40;5.67;;;;;;;14.50;100.00;100814.13;1740882;82;21166;-89
2022/07/15 00:47:45;;;;;;;6.17;5.58;;;;;;;14.49;100.00;100813.77;1715491;83;21039;-88
2022/07/15 00:50:15;;;;;;;6.20;5.60;;;;;;;14.47;100.00;100818.31;1740948;82;21017;-88
2022/07/15 00:52:46;;;;;;;5.67;5.17;;;;;;;14.44;100.00;100815.14;1741024;82;21100;-88
2022/07/15 00:55:14;;;;;;;5.92;5.22;;;;;;;14.41;100.00;100818.05;1741260;82;21085;-89
2022/07/15 00:57:45;;;;;;;5.58;5.08;;;;;;;14.38;100.00;100815.69;1740831;81;21026;-88
2022/07/15 01:00:14;;;;;;;6.15;5.65;;;;;;;14.34;100.00;100815.95;1741205;82;21046;-88
2022/07/15 01:02:50;;;;;;;5.67;5.08;;;;;;;14.31;100.00;100811.00;1740756;82;21038;-88
2022/07/15 01:05:13;;;;;;;;;;;;;;;14.30;100.00;100816.37;1745484;81;21033;-88
2022/07/15 01:07:40;;;;;;;5.33;4.80;;;;;;;14.29;100.00;100813.41;1741378;82;20167;-88
2022/07/15 01:10:09;;;;;;;7.42;5.62;;;;;;;14.27;100.00;100814.02;1741074;82;21165;-88
2022/07/15 01:12:37;;;;;;;6.67;5.53;;;;;;;14.24;100.00;100809.88;1740655;82;21041;-88
2022/07/15 01:15:10;;;;;;;6.05;5.05;;;;;;;14.23;100.00;100811.30;1741218;82;21496;-89
2022/07/15 01:17:38;;;;;;;5.42;4.92;;;;;;;14.19;100.00;100810.28;1741401;81;21037;-88
2022/07/15 01:20:09;;;;;;;6.70;5.35;;;;;;;14.18;100.00;100809.93;1755658;81;21626;-88
2022/07/15 01:22:39;;;;;;;6.45;4.62;;;;;;;14.16;100.00;100807.92;1743022;81;21157;-88
2022/07/15 01:25:08;;;;;;;6.08;4.80;;;;;;;14.13;100.00;100808.20;1740515;82;21604;-89
2022/07/15 01:27:35;;;;;;;4.90;4.47;;;;;;;14.11;100.00;100807.50;1741122;82;21025;-88
2022/07/15 01:30:03;;;;;;;4.95;4.55;;;;;;;14.11;100.00;100800.95;1740938;82;21093;-89
2022/07/15 01:32:31;;;;;;;5.45;4.37;;;;;;;14.10;100.00;100803.72;1741110;82;21029;-89
2022/07/15 01:34:58;;;;;;;4.87;4.47;;;;;;;14.08;100.00;100803.83;1741584;82;21630;-88
2022/07/15 01:37:27;;;;;;;4.60;4.20;;;;;;;14.06;100.00;100800.52;1740564;82;22184;-88
2022/07/15 01:39:56;;;;;;;4.83;4.42;;;;;;;14.07;100.00;100803.48;1743669;81;22131;-88
2022/07/15 01:42:24;;;;;;;4.97;3.92;;;;;;;14.07;100.00;100806.09;1741050;82;21610;-88
2022/07/15 01:44:52;;;;;;;5.22;4.72;;;;;;;14.05;100.00;100804.12;1741598;82;21050;-88
2022/07/15 01:47:19;;;;;;;4.40;4.08;;;;;;;14.04;100.00;100803.77;1741170;82;21786;-88
2022/07/15 01:49:47;;;;;;;7.45;4.22;;;;;;;14.02;100.00;100808.30;1755818;81;21050;-88
2022/07/15 01:52:14;;;;;;;4.85;4.35;;;;;;;14.01;100.00;100815.34;1741069;82;21025;-88
2022/07/15 01:54:43;;;;;;;5.58;4.30;;;;;;;14.00;100.00;100805.83;1741070;82;21512;-91
2022/07/15 01:57:11;;;;;;;4.80;4.22;;;;;;;14.01;100.00;100809.26;1740954;82;21081;-89
2022/07/15 01:59:41;;;;;;;4.20;3.87;;;;;;;14.02;100.00;100811.73;1740582;81;21256;-88
2022/07/15 02:02:09;;;;;;;4.17;3.87;;;;;;;14.03;100.00;100803.41;1741159;82;21036;-89
2022/07/15 02:04:36;;;;;;;4.35;3.90;;;;;;;14.04;100.00;100804.58;1741169;82;21039;-89
2022/07/15 02:07:04;;;;;;;4.55;3.98;;;;;;;14.07;100.00;100807.91;1741125;81;21007;-88
2022/07/15 02:09:34;;;;;;;5.78;3.77;;;;;;;14.07;100.00;100806.09;1737359;82;21011;-88
2022/07/15 02:12:01;;;;;;;4.58;3.58;;;;;;;14.10;100.00;100807.64;1740789;81;21866;-88
2022/07/15 02:14:31;;;;;;;4.80;3.85;;;;;;;14.08;100.00;100802.52;1737422;82;21078;-88
2022/07/15 02:17:01;;;;;;;4.12;3.80;;;;;;;14.08;100.00;100804.33;1737725;82;21092;-88
2022/07/15 02:19:33;;;;;;;4.87;4.22;;;;;;;14.04;100.00;100802.45;1737745;82;21020;-90
2022/07/15 02:22:00;;;;;;;6.40;4.30;;;;;;;14.04;100.00;100803.77;1741156;82;21051;-90
2022/07/15 02:24:50;;;;;;;4.25;3.85;;;;;;;14.05;100.00;100801.50;1740967;82;21177;-89
2022/07/15 02:27:21;;;;;;;5.60;3.75;;;;;;;14.09;100.00;100800.25;1737386;82;21072;-88
2022/07/15 02:29:48;;;;;;;4.60;4.00;;;;;;;14.14;100.00;100801.98;1741016;82;21095;-88
2022/07/15 02:32:17;;;;;;;6.15;3.83;;;;;;;14.19;100.00;100798.50;1738201;82;21083;-90
2022/07/15 02:34:44;;;;;;;4.50;3.95;;;;;;;14.25;100.00;100799.76;1740820;82;21131;-89
2022/07/15 02:37:12;;;;;;;4.05;3.75;;;;;;;14.30;100.00;100798.05;1741069;80;21285;-91
2022/07/15 02:39:40;;;;;;;4.45;4.03;;;;;;;14.37;100.00;100803.09;1729907;82;21043;-89
2022/07/15 02:42:07;;;;;;;5.67;4.83;;;;;;;14.42;100.00;100800.88;1730332;82;21039;-89
2022/07/15 02:44:36;;;;;;;4.83;4.35;;;;;;;14.46;100.00;100807.48;1730260;82;21038;-88
2022/07/15 02:47:03;;;;;;;4.78;4.37;;;;;;;14.49;100.00;100803.79;1730065;82;21046;-90
2022/07/15 02:49:31;;;;;;;6.17;3.90;;;;;;;14.51;100.00;100805.30;1730231;82;21588;-89
2022/07/15 02:51:58;;;;;;;4.60;4.20;;;;;;;14.53;100.00;100809.09;1707514;82;20999;-88
2022/07/15 02:54:26;;;;;;;9.85;4.72;;;;;;;14.56;100.00;100809.29;1730120;82;21608;-89
2022/07/15 02:56:54;;;;;;;5.00;4.28;;;;;;;14.60;100.00;100808.07;1730235;82;21054;-89
2022/07/15 02:59:21;;;;;;;4.67;4.28;;;;;;;14.65;100.00;100809.78;1730346;82;21034;-90
2022/07/15 03:01:50;;;;;;;5.50;4.45;;;;;;;14.69;100.00;100813.84;1726992;82;21142;-88
2022/07/15 03:04:17;;;;;;;5.42;5.00;;;;;;;14.74;100.00;100809.00;1730289;82;21022;-89
2022/07/15 03:06:45;;;;;;;5.17;4.78;;;;;;;14.80;100.00;100811.06;1730204;82;21029;-89
2022/07/15 03:09:13;;;;;;;5.10;4.37;;;;;;;14.87;100.00;100809.19;1730371;82;21055;-89
2022/07/15 03:11:41;;;;;;;5.35;4.95;;;;;;;14.93;100.00;100807.34;1708882;82;21038;-89
2022/07/15 03:14:09;;;;;;;7.47;4.72;;;;;;;15.01;100.00;100814.03;1703326;84;21974;-89
2022/07/15 03:16:36;;;;;;;5.33;4.92;;;;;;;15.07;100.00;100816.09;1726009;82;21319;-91
2022/07/15 03:19:03;;;;;;;4.90;4.45;;;;;;;15.14;100.00;100818.49;1725920;81;21101;-91
2022/07/15 03:21:30;;;;;;;5.47;4.97;;;;;;;15.24;100.00;100817.66;1703628;84;21087;-91
2022/07/15 03:23:57;;;;;;;5.45;5.05;;;;;;;15.35;100.00;100816.16;1725529;82;21053;-91
2022/07/15 03:26:24;;;;;;;4.90;4.50;;;;;;;15.45;100.00;100814.35;1703063;82;21731;-91
2022/07/15 03:28:52;;;;;;;5.00;4.60;;;;;;;15.57;100.00;100820.75;1726061;81;21069;-90
2022/07/15 03:31:19;;;;;;;5.17;4.72;;;;;;;15.69;100.00;100820.09;1725908;83;21633;-91
2022/07/15 03:33:46;;;;;;;5.08;4.47;;;;;;;15.81;100.00;100817.61;1703261;82;21088;-91
2022/07/15 03:36:14;;;;;;;5.30;4.90;;;;;;;15.93;100.00;100814.34;1725678;83;21559;-90
2022/07/15 03:38:42;;;;;;;5.62;4.75;;;;;;;16.07;100.00;100812.53;1703129;84;22354;-89
2022/07/15 03:41:11;;;;;;;5.20;4.80;;;;;;;16.20;100.00;100814.00;1723161;81;21033;-89
2022/07/15 03:43:38;;;;;;;5.17;4.65;;;;;;;16.33;100.00;100821.03;1703289;83;21096;-89
2022/07/15 03:46:06;;;;;;;6.67;4.85;;;;;;;16.47;100.00;100821.02;1726244;82;21116;-91
2022/07/15 03:48:33;;;;;;;5.47;5.08;;;;;;;16.61;100.00;100818.84;1725543;81;21575;-89
2022/07/15 03:51:02;;;;;;;5.95;5.45;;;;;;;16.76;100.00;100823.91;1702971;83;21166;-90
2022/07/15 03:53:29;;;;;;;6.72;5.83;;;;;;;16.92;100.00;100823.70;1725899;82;21141;-89
2022/07/15 03:55:56;;;;;;;6.37;5.87;;;;;;;17.07;100.00;100822.20;1703130;84;21088;-90
2022/07/15 03:58:24;;;;;;;6.90;6.20;;;;;;;17.22;100.00;100821.17;1725493;83;21050;-89
2022/07/15 04:00:51;;;;;;;6.55;5.95;;;;;;;17.38;100.00;100821.79;1703273;84;21092;-89
2022/07/15 04:03:18;;;;;;;6.97;6.37;;;;;;;17.53;100.00;100824.66;1725728;81;21128;-90
2022/07/15 04:05:45;;;;;;;7.85;7.15;;;;;;;17.69;100.00;100823.09;1703211;82;21092;-89
2022/07/15 04:08:12;;;;;;;7.55;6.83;;;;;;;17.85;100.00;100828.44;1726195;83;21022;-90
2022/07/15 04:10:42;;;;;;;8.23;7.53;;;;;;;18.00;100.00;100834.44;1725906;82;21062;-91
2022/07/15 04:13:09;;;;;;;8.63;7.83;;;;;;;18.13;100.00;100836.16;1714102;83;21052;-89
2022/07/15 04:15:37;;;;;;;8.23;7.45;;;;;;;18.26;100.00;100833.88;1735365;82;21168;-89
2022/07/15 04:18:05;;;;;;;8.48;7.65;;;;;;;18.39;100.00;100833.90;1735712;82;21011;-89
2022/07/15 04:20:33;;;;;;;8.20;7.50;;;;;;;18.53;100.00;100831.97;1735304;82;21074;-89
2022/07/15 04:23:01;;;;;;;9.08;8.10;;;;;;;18.69;100.00;100831.66;1735170;82;21788;-90
2022/07/15 04:25:28;;;;;;;7.55;6.80;;;;;;;18.85;100.00;100832.99;1735890;82;21078;-89
2022/07/15 04:27:55;;;;;;;8.13;7.45;;;;;;;19.01;100.00;100828.73;1722043;82;21158;-90
2022/07/15 04:30:24;;;;;;;8.73;7.10;;;;;;;19.15;100.00;100830.70;1765693;80;21532;-91
2022/07/15 04:32:52;;;;;;;8.90;8.00;;;;;;;19.29;100.00;100831.84;1751790;80;21697;-90
2022/07/15 04:35:20;;;;;;;9.88;7.65;;;;;;;19.43;100.00;100827.66;1751016;81;21060;-89
2022/07/15 04:37:49;;;;;;;9.10;8.10;;;;;;;19.58;100.00;100825.16;1771745;80;21027;-91
2022/07/15 04:40:16;;;;;;;8.68;7.90;;;;;;;19.73;100.00;100822.65;1782378;80;22019;-89
2022/07/15 04:42:43;;;;;;;9.00;7.85;;;;;;;19.85;100.00;100825.77;1782337;80;20995;-88
2022/07/15 04:45:12;;;;;;;9.13;7.65;;;;;;;19.99;100.00;100827.69;1782535;80;21049;-88
2022/07/15 04:47:41;;;;;;;8.05;7.10;;;;;;;20.15;100.00;100823.31;1782394;80;21544;-89
2022/07/15 04:52:56;;;;;;;6.08;5.50;;;;;;;20.45;100.00;100826.94;1782469;80;21118;-89
2022/07/15 04:55:24;;;;;;;7.12;6.42;;;;;;;20.63;100.00;100827.16;1782154;80;21028;-89
2022/07/15 04:57:54;;;;;;;6.67;6.08;;;;;;;20.77;100.00;100822.92;1777776;80;22118;-88
2022/07/15 05:00:21;;;;;;;6.83;6.05;;;;;;;20.91;100.00;100821.33;1782265;80;21048;-89
2022/07/15 05:02:49;;;;;;;6.95;6.28;;;;;;;21.05;100.00;100833.77;1771494;80;21107;-88
2022/07/15 05:05:16;;;;;;;6.83;6.22;;;;;;;21.17;100.00;100826.73;1766502;80;21132;-88
2022/07/15 05:07:43;;;;;;;6.90;6.30;;;;;;;21.31;100.00;100828.58;1737575;81;21508;-88
2022/07/15 05:10:12;;;;;;;7.08;5.62;;;;;;;21.45;100.00;100826.95;1759935;80;21045;-88
2022/07/15 05:12:41;;;;;;;6.87;6.28;;;;;;;21.59;100.00;100830.13;1747948;80;21007;-89
2022/07/15 05:15:10;;;;;;;5.62;5.15;;;;;;;21.77;100.00;100828.09;1745160;81;21081;-89
2022/07/15 05:17:40;;;;;;;7.62;6.00;;;;;;;21.88;100.00;100821.02;1752768;80;21277;-88
2022/07/15 05:20:10;;;;;;;6.13;5.63;;;;;;;22.00;100.00;100822.16;1760477;81;21038;-91
2022/07/15 05:22:37;;;;;;;6.78;5.75;;;;;;;22.11;100.00;100819.56;1688971;84;21356;-88
2022/07/15 05:25:06;;;;;;;9.55;5.83;;;;;;;22.24;100.00;100825.48;1764406;81;21037;-88
2022/07/15 05:27:35;;;;;;;8.58;6.37;;;;;;;22.37;100.00;100822.16;1764302;81;21089;-89
2022/07/15 05:30:02;;;;;;;9.35;7.00;;;;;;;22.50;100.00;100821.50;1765150;81;21177;-88
2022/07/15 05:32:32;;;;;;;7.55;6.78;;;;;;;22.62;100.00;100824.47;1744312;81;21069;-89
2022/07/15 05:35:00;;;;;;;6.62;6.03;;;;;;;22.75;100.00;100827.75;1730006;82;21089;-89
2022/07/15 05:37:28;;;;;;;6.03;5.53;;;;;;;22.87;100.00;100826.73;1734244;82;21046;-89
2022/07/15 05:39:57;;;;;;;6.97;5.37;;;;;;;23.00;100.00;100826.83;1734385;82;21614;-89
2022/07/15 05:42:28;;;;;;;5.92;5.22;;;;;;;23.12;100.00;100824.46;1733516;82;21034;-89
2022/07/15 05:44:55;;;;;;;7.30;4.87;;;;;;;23.23;100.00;100822.64;1734156;82;21579;-89
2022/07/15 05:47:23;;;;;;;5.85;4.90;;;;;;;23.38;100.00;100823.87;1734470;82;21073;-89
2022/07/15 05:49:52;;;;;;;5.50;5.00;;;;;;;23.51;100.00;100823.13;1734362;82;21007;-89
2022/07/15 05:52:21;;;;;;;7.42;5.00;;;;;;;23.65;100.00;100821.86;1734537;81;21046;-91
2022/07/15 05:54:48;;;;;;;6.40;5.30;;;;;;;23.77;100.00;100816.28;1736991;81;21108;-91
2022/07/15 05:57:15;;;;;;;9.08;6.20;;;;;;;23.91;100.00;100816.67;1734372;82;21022;-90
2022/07/15 05:59:43;;;;;;;7.08;6.47;;;;;;;24.05;100.00;100810.89;1734250;81;21022;-91
2022/07/15 06:02:10;;;;;;;6.72;5.12;;;;;;;24.17;100.00;100815.12;1734236;82;21030;-90
2022/07/15 06:04:39;;;;;;;5.45;4.90;;;;;;;24.29;100.00;100813.22;1758822;81;21591;-89
2022/07/15 06:07:06;;;;;;;4.67;4.37;;;;;;;24.43;100.00;100819.39;1764863;81;21226;-89
2022/07/15 06:09:35;;;;;;;6.03;5.10;;;;;;;24.55;100.00;100808.44;1764252;81;21015;-89
2022/07/15 06:12:03;;;;;;;6.55;4.90;;;;;;;24.68;100.00;100812.98;1764688;80;21042;-89
2022/07/15 06:14:32;;;;;;;7.08;4.83;;;;;;;24.81;100.00;100808.98;1771869;81;21033;-89
2022/07/15 06:16:59;;;;;;;5.40;4.50;;;;;;;24.97;100.00;100816.24;1736650;82;21118;-90
2022/07/15 06:19:26;;;;;;;6.65;4.40;;;;;;;25.11;100.00;100803.73;1737031;82;21159;-92
2022/07/15 06:21:53;;;;;;;5.72;4.22;;;;;;;25.22;100.00;100806.27;1708826;81;21110;-91
2022/07/15 06:24:21;;;;;;;4.62;4.15;;;;;;;25.31;100.00;100807.69;1710263;81;21029;-90
2022/07/15 06:26:48;;;;;;;4.45;4.15;;;;;;;25.40;100.00;100803.81;1703972;81;21035;-89
2022/07/15 06:29:15;;;;;;;4.75;4.35;;;;;;;25.51;100.00;100809.00;1708786;81;21098;-89
2022/07/15 06:31:43;;;;;;;4.95;4.50;;;;;;;25.65;100.00;100809.25;1716048;82;21995;-92
2022/07/15 06:34:11;;;;;;;6.87;3.98;;;;;;;25.80;100.00;100810.33;1720525;81;21049;-90
2022/07/15 06:36:38;;;;;;;7.28;4.12;;;;;;;25.97;100.00;100808.51;1712623;82;21591;-90
2022/07/15 06:39:05;;;;;;;5.05;4.03;;;;;;;26.10;100.00;100805.80;1708192;83;21051;-90
2022/07/15 06:41:33;;;;;;;3.90;3.60;;;;;;;26.21;100.00;100806.95;1717432;82;21041;-89
2022/07/15 06:44:01;;;;;;;4.42;4.03;;;;;;;26.29;100.00;100805.89;1693868;84;21176;-90
2022/07/15 06:46:38;;;;;;;4.10;3.33;;;;;;;26.29;100.00;100805.36;1711618;82;21564;-90
2022/07/15 06:49:05;;;;;;;7.37;3.77;;;;;;;26.33;100.00;100808.41;1710882;82;21050;-89
2022/07/15 06:51:32;;;;;;;4.33;3.60;;;;;;;26.40;100.00;100809.72;1710239;83;21089;-89
2022/07/15 06:53:59;;;;;;;9.95;3.40;;;;;;;26.50;100.00;100807.89;1710509;82;21042;-89
2022/07/15 06:56:29;;;;;;;3.60;3.22;;;;;;;26.61;100.00;100813.35;1712011;82;21234;-89
2022/07/15 06:58:56;;;;;;;4.15;3.20;;;;;;;26.72;100.00;100817.16;1688369;83;21061;-89
2022/07/15 07:01:23;;;;;;;3.15;2.95;;;;;;;26.85;100.00;100813.59;1719529;82;21113;-89
2022/07/15 07:03:51;;;;;;;3.77;3.47;;;;;;;26.99;95.20;100816.16;1715574;82;21514;-89
2022/07/15 07:06:18;;;;;;;3.92;2.83;;;;;;;27.06;85.83;100815.05;1708147;82;21030;-90
2022/07/15 07:08:47;;;;;;;4.50;3.22;;;;;;;27.12;84.33;100816.56;1736742;82;21078;-91
2022/07/15 07:11:15;;;;;;;3.10;2.90;;;;;;;27.15;72.78;100808.92;1734409;82;21049;-89
2022/07/15 07:13:44;;;;;;;3.20;2.90;;;;;;;27.22;69.02;100810.16;1725722;82;21093;-90
2022/07/15 07:16:12;;;;;;;2.52;2.33;;;;;;;27.31;66.61;100806.70;1711405;82;21705;-90
2022/07/15 07:19:16;;;;;;;2.83;2.62;;;;;;;27.40;60.69;100808.84;1680514;85;21070;-89
2022/07/15 07:21:45;;;;;;;3.25;2.80;;;;;;;27.49;60.90;100808.58;1688785;84;21243;-94
2022/07/15 07:24:12;;;;;;;3.00;2.75;;;;;;;27.51;59.96;100805.97;1708477;83;21026;-91
2022/07/15 07:26:39;;;;;;;3.22;2.77;;;;;;;27.57;58.31;100806.94;1695301;83;21050;-91
2022/07/15 07:29:06;;;;;;;3.00;2.80;;;;;;;27.64;57.05;100804.20;1710382;82;21592;-93
2022/07/15 07:31:33;;;;;;;4.03;2.83;;;;;;;27.69;57.23;100803.80;1691284;83;21026;-92
2022/07/15 07:34:00;;;;;;;3.20;2.90;;;;;;;27.75;57.60;100803.42;1711349;82;21185;-91
2022/07/15 07:36:27;;;;;;;3.08;2.75;;;;;;;27.83;58.74;100802.30;1710823;82;21073;-93
2022/07/15 07:38:55;;;;;;;3.83;2.65;;;;;;;27.92;60.44;100799.61;1693037;84;21073;-92
2022/07/15 07:41:23;;;;;;;2.80;2.60;;;;;;;28.02;57.84;100786.48;1677472;85;21105;-91
2022/07/15 07:43:50;;;;;;;5.60;2.67;;;;;;;28.14;55.99;100794.58;1707875;84;21091;-93
2022/07/15 07:46:18;;;;;;;3.70;2.75;;;;;;;28.26;56.64;100795.95;1675982;85;21130;-93
2022/07/15 07:48:45;;;;;;;2.95;2.50;;;;;;;28.37;53.38;100793.00;1740900;82;21501;-90
2022/07/15 07:51:13;;;;;;;5.62;2.50;;;;;;;28.46;54.18;100796.98;1741375;82;21078;-90
2022/07/15 07:53:40;;;;;;;4.62;2.45;;;;;;;28.55;56.35;100790.78;1747781;81;21273;-89
2022/07/15 07:56:08;;;;;;;2.80;2.60;;;;;;;28.68;51.68;100790.25;1762243;81;21022;-90
2022/07/15 07:58:35;;;;;;;5.55;2.85;;;;;;;28.74;51.62;100782.65;1771405;80;21777;-89
2022/07/15 08:01:03;;;;;;;4.47;3.00;;;;;;;28.79;51.36;100790.28;1767790;80;21126;-91
2022/07/15 08:03:30;;;;;;;3.80;2.90;;;;;;;28.86;50.12;100790.18;1755989;80;21053;-89
2022/07/15 08:06:33;;;;;;;2.95;2.65;;;;;;;28.87;49.28;100786.45;1714725;82;21071;-90
2022/07/15 08:09:01;;;;;;;2.92;2.60;;;;;;;28.91;49.91;100783.59;1696097;82;21138;-91
2022/07/15 08:11:29;;;;;;;3.33;2.77;;;;;;;28.99;47.76;100785.11;1712043;83;21208;-89
2022/07/15 08:13:57;;;;;;;3.33;3.02;;;;;;;29.00;47.59;100784.57;1686519;84;21030;-90
2022/07/15 08:16:25;;;;;;;5.50;3.02;;;;;;;28.96;47.35;100783.69;1685556;84;21552;-90
2022/07/15 08:18:53;;;;;;;3.10;2.87;;;;;;;28.98;49.50;100777.28;1703371;84;21077;-92
2022/07/15 08:21:20;;;;;;;2.95;2.67;;;;;;;29.06;49.12;100775.58;1710631;82;21603;-90
2022/07/15 08:23:47;;;;;;;3.47;3.17;;;;;;;29.14;46.75;100777.10;1696234;83;21168;-90
2022/07/15 08:26:18;;;;;;;3.05;2.85;;;;;;;29.12;46.46;100776.01;1702031;84;21379;-91
2022/07/15 08:28:43;;;;;;;3.62;3.00;;;;;;;29.13;46.59;100769.56;1744865;81;21081;-90
2022/07/15 08:31:10;;;;;;;3.25;3.00;;;;;;;29.19;48.12;100768.65;1748599;81;21032;-90
2022/07/15 08:33:39;;;;;;;4.28;2.98;;;;;;;29.31;49.54;100770.47;1757169;81;21112;-90
2022/07/15 08:36:07;;;;;;;2.98;2.77;;;;;;;29.41;47.61;100765.36;1747032;81;21089;-92
2022/07/15 08:38:34;;;;;;;4.20;2.95;;;;;;;29.49;50.08;100763.64;1750526;80;21083;-91
2022/07/15 08:41:01;;;;;;;3.60;3.15;;;;;;;29.57;48.08;100760.58;1753913;80;21504;-90
2022/07/15 08:43:29;;;;;;;3.20;3.00;;;;;;;29.67;48.26;100761.83;1768381;80;21058;-90
2022/07/15 08:45:57;;;;;;;3.62;3.33;;;;;;;29.72;46.24;100760.58;1743415;80;21088;-90
2022/07/15 08:48:29;;;;;;;3.62;3.33;;;;;;;29.73;47.16;100763.01;1753330;81;21972;-92
2022/07/15 08:50:56;;;;;;;3.65;3.30;;;;;;;29.77;47.37;100756.63;1741954;80;21049;-91
2022/07/15 08:53:24;;;;;;;3.50;3.20;;;;;;;29.81;47.59;100759.64;1740928;82;20995;-90
2022/07/15 08:55:52;;;;;;;5.53;4.47;;;;;;;29.86;47.54;100759.76;1741076;82;21476;-92
2022/07/15 08:58:19;;;;;;;5.42;4.90;;;;;;;29.90;47.98;100760.38;1740913;81;21031;-91
2022/07/15 09:00:46;;;;;;;9.33;5.12;;;;;;;29.99;47.53;100761.36;1741556;82;21150;-91
2022/07/15 09:03:14;;;;;;;6.08;4.17;;;;;;;30.05;48.41;100747.77;1761196;80;21030;-91
2022/07/15 09:05:41;;;;;;;5.28;4.70;;;;;;;30.17;48.96;100751.72;1677733;84;21594;-92
2022/07/15 09:08:19;;;;;;;6.75;5.12;;;;;;;30.28;48.23;100749.20;1719738;81;21094;-93
2022/07/15 09:10:58;;;;;;;4.60;4.20;;;;;;;30.34;46.73;100743.69;1703713;83;21041;-89
2022/07/15 09:13:34;;;;;;;5.92;4.70;;;;;;;30.36;46.55;100749.63;1698715;83;21178;-91
2022/07/15 09:16:05;;;;;;;7.20;5.00;;;;;;;30.39;46.26;100746.98;1751142;81;21026;-90
2022/07/15 09:18:40;;;;;;;5.62;4.80;;;;;;;30.38;44.30;100738.64;1751529;81;22212;-92
2022/07/15 09:21:28;;;;;;;5.35;4.25;;;;;;;30.33;46.74;100735.34;1772033;80;21041;-92
2022/07/15 09:23:57;;;;;;;6.47;4.47;;;;;;;30.37;47.38;100736.46;1752166;80;21068;-91
2022/07/15 09:26:35;;;;;;;4.92;4.33;;;;;;;30.48;47.45;100742.83;1748176;81;21148;-91
2022/07/15 09:33:34;;;;;;;5.30;4.80;;;;;;;30.58;47.48;100735.47;1747081;81;21596;-96
2022/07/15 09:34:25;;;;;;;5.75;5.17;;;;;;;30.67;45.48;100733.17;1717288;82;21122;-91
2022/07/15 09:36:55;;;;;;;5.00;4.55;;;;;;;30.72;44.65;100729.23;1751634;81;21104;-91
2022/07/15 09:39:24;;;;;;;5.37;4.87;;;;;;;30.69;44.65;100734.54;1751822;81;21214;-90
2022/07/15 09:41:53;;;;;;;5.40;4.90;;;;;;;30.64;45.17;100729.65;1777152;80;21073;-91
2022/07/15 09:44:22;;;;;;;4.90;4.50;;;;;;;30.63;45.21;100722.10;1761139;80;21041;-90
2022/07/15 09:46:57;;;;;;;5.10;4.60;;;;;;;30.64;44.98;100726.96;1744547;81;21033;-91
2022/07/15 09:49:32;;;;;;;6.60;4.85;;;;;;;30.70;45.57;100725.97;1751345;81;22268;-90
2022/07/15 09:52:11;;;;;;;6.20;4.72;;;;;;;30.78;45.62;100726.89;1756011;80;22240;-92
2022/07/15 09:54:49;;;;;;;6.50;5.00;;;;;;;30.87;45.43;100722.42;1751077;81;21026;-91
2022/07/15 09:57:20;;;;;;;5.03;4.40;;;;;;;30.98;45.90;100716.10;1751335;81;21043;-92
2022/07/15 09:59:51;;;;;;;5.62;5.08;;;;;;;31.10;45.63;100715.49;1751319;81;21030;-92
2022/07/15 10:02:18;;;;;;;6.35;4.85;;;;;;;31.17;43.77;100715.83;1751577;81;21805;-92
2022/07/15 10:04:46;;;;;;;5.22;4.72;;;;;;;31.20;44.07;100710.76;1751387;81;21148;-92
2022/07/15 10:07:13;;;;;;;5.35;4.85;;;;;;;31.23;43.21;100712.13;1751454;81;21049;-92
2022/07/15 10:09:41;;;;;;;7.28;5.17;;;;;;;31.27;43.65;100710.03;1761899;80;21018;-90
2022/07/15 10:12:21;;;;;;;6.42;5.17;;;;;;;31.34;42.99;100704.98;1751010;80;21124;-92
2022/07/15 10:15:20;;;;;;;5.80;5.20;;;;;;;31.40;42.64;100706.14;1763211;80;21038;-91
2022/07/15 10:18:15;;;;;;;4.55;4.10;;;;;;;31.45;42.03;100700.00;1760196;81;21298;-90
2022/07/15 10:21:02;;;;;;;5.47;4.97;;;;;;;31.52;43.01;100707.87;1697884;83;21085;-90
2022/07/15 10:23:56;;;;;;;5.47;4.97;;;;;;;31.55;41.81;100708.70;1675592;83;21307;-90
2022/07/15 10:26:57;;;;;;;4.97;4.47;;;;;;;31.53;41.58;100700.89;1700527;83;21041;-91
2022/07/15 10:29:24;;;;;;;6.15;4.65;;;;;;;31.52;41.04;100699.80;1672897;83;21334;-92
2022/07/15 10:32:00;;;;;;;5.20;4.80;;;;;;;31.54;41.97;100690.92;1750973;80;21218;-91
2022/07/15 10:34:32;;;;;;;6.42;5.37;;;;;;;31.59;43.30;100692.34;1754073;80;21078;-92
2022/07/15 10:37:04;;;;;;;5.35;4.85;;;;;;;31.70;42.30;100692.73;1739010;82;21568;-92
2022/07/15 10:39:52;;;;;;;4.85;4.50;;;;;;;31.78;43.64;100691.46;1684676;85;21124;-92
2022/07/15 10:42:22;;;;;;;4.95;4.55;;;;;;;32.05;41.43;100686.03;1676986;83;21082;-92
2022/07/15 10:45:03;;;;;;;7.17;6.05;;;;;;;32.05;41.43;100686.03;1679300;83;21219;-92
2022/07/15 10:47:33;;;;;;;8.13;5.03;;;;;;;32.14;40.71;100681.51;1676149;84;21096;-93
2022/07/15 10:50:18;;;;;;;7.53;5.50;;;;;;;32.24;40.72;100678.38;1740543;80;21080;-92
2022/07/15 10:52:46;;;;;;;6.20;5.60;;;;;;;32.21;41.13;100662.69;1726199;80;21049;-94
2022/07/15 10:55:13;;;;;;;6.08;5.47;;;;;;;32.21;41.13;100662.69;1757090;80;21741;-95
2022/07/15 10:57:53;;;;;;;5.60;5.10;;;;;;;32.34;43.04;100652.58;1753077;80;21239;-92
2022/07/15 11:00:35;;;;;;;5.55;5.10;;;;;;;32.34;43.04;100652.58;1747732;80;21746;-92
2022/07/15 11:03:13;;;;;;;5.78;5.22;;;;;;;32.50;40.64;100659.67;1739956;80;21101;-93
2022/07/15 11:06:01;;;;;;;5.72;4.65;;;;;;;32.62;42.07;100663.50;1739850;80;21041;-91
2022/07/15 11:08:40;;;;;;;5.80;5.30;;;;;;;32.68;39.80;100653.56;1694076;83;22198;-91
2022/07/15 11:11:19;;;;;;;6.05;5.45;;;;;;;32.65;41.87;100656.22;1692026;83;21161;-90
2022/07/15 11:13:48;;;;;;;5.33;4.92;;;;;;;32.62;40.90;100659.46;1744238;80;21014;-91
2022/07/15 11:16:20;;;;;;;5.67;5.08;;;;;;;32.64;41.58;100651.94;1739500;82;21089;-92
2022/07/15 11:18:55;;;;;;;11.48;4.90;;;;;;;32.73;41.66;100648.98;1680258;84;21044;-96
2022/07/15 11:21:24;;;;;;;5.35;4.85;;;;;;;32.85;41.62;100648.78;1686246;84;21049;-92
2022/07/15 11:23:56;;;;;;;5.58;4.87;;;;;;;32.95;41.68;100650.73;1684147;85;21085;-90
2022/07/15 11:26:29;;;;;;;5.00;4.50;;;;;;;33.01;38.89;100651.56;1707686;82;38469;-91
2022/07/15 11:28:58;;;;;;;4.97;4.47;;;;;;;33.03;39.74;100650.21;1667135;85;21055;-92
2022/07/15 11:31:26;;;;;;;5.62;5.12;;;;;;;33.03;38.12;100654.78;1736466;82;21030;-93
2022/07/15 11:33:57;;;;;;;4.92;4.28;;;;;;;32.97;39.51;100653.15;1745477;81;21072;-91
2022/07/15 11:36:24;;;;;;;6.00;5.50;;;;;;;32.95;38.98;100645.33;1734777;81;21270;-94
2022/07/15 11:38:52;;;;;;;4.33;4.03;;;;;;;32.96;38.97;100651.00;1743313;81;21619;-90